sensor_id;sensor_type;location;lat;lon;timestamp;P1;durP1;ratioP1;P2;durP2;ratioP2
76157;SDS011;64907;51.574;6.502;2023-08-17T00:02:00;16.67;;;6.90;;
76157;SDS011;64907;51.574;6.502;2023-08-17T00:04:25;9.60;;;7.22;;
76157;SDS011;64907;51.574;6.502;2023-08-17T00:06:50;11.73;;;8.40;;
76157;SDS011;64907;51.574;6.502;2023-08-17T00:09:15;9.47;;;7.77;;
76157;SDS011;64907;51.574;6.502;2023-08-17T00:11:41;8.30;;;6.90;;
76157;SDS011;64907;51.574;6.502;2023-08-17T00:14:06;8.73;;;7.67;;
76157;SDS011;64907;51.574;6.502;2023-08-17T00:16:31;9.50;;;7.15;;
76157;SDS011;64907;51.574;6.502;2023-08-17T00:18:56;7.97;;;7.28;;
76157;SDS011;64907;51.574;6.502;2023-08-17T00:21:22;9.70;;;7.57;;
76157;SDS011;64907;51.574;6.502;2023-08-17T00:23:47;9.75;;;8.00;;
76157;SDS011;64907;51.574;6.502;2023-08-17T00:26:12;8.53;;;7.73;;
76157;SDS011;64907;51.574;6.502;2023-08-17T00:28:39;8.52;;;7.72;;
76157;SDS011;64907;51.574;6.502;2023-08-17T00:31:04;12.63;;;8.20;;
76157;SDS011;64907;51.574;6.502;2023-08-17T00:33:29;8.87;;;7.27;;
76157;SDS011;64907;51.574;6.502;2023-08-17T00:35:54;11.10;;;7.38;;
76157;SDS011;64907;51.574;6.502;2023-08-17T00:38:19;8.57;;;7.83;;
76157;SDS011;64907;51.574;6.502;2023-08-17T00:40:45;7.77;;;7.17;;
76157;SDS011;64907;51.574;6.502;2023-08-17T00:43:10;9.00;;;8.23;;
76157;SDS011;64907;51.574;6.502;2023-08-17T00:45:35;8.20;;;7.60;;
76157;SDS011;64907;51.574;6.502;2023-08-17T00:48:00;8.20;;;7.40;;
76157;SDS011;64907;51.574;6.502;2023-08-17T00:50:26;8.75;;;7.78;;
76157;SDS011;64907;51.574;6.502;2023-08-17T00:52:52;7.75;;;7.03;;
76157;SDS011;64907;51.574;6.502;2023-08-17T00:55:18;7.63;;;7.00;;
76157;SDS011;64907;51.574;6.502;2023-08-17T00:57:43;7.90;;;7.13;;
76157;SDS011;64907;51.574;6.502;2023-08-17T01:00:09;9.07;;;7.85;;
76157;SDS011;64907;51.574;6.502;2023-08-17T01:02:35;10.63;;;8.13;;
76157;SDS011;64907;51.574;6.502;2023-08-17T01:05:00;8.57;;;7.50;;
76157;SDS011;64907;51.574;6.502;2023-08-17T01:07:26;12.13;;;8.13;;
76157;SDS011;64907;51.574;6.502;2023-08-17T01:09:51;8.90;;;6.90;;
76157;SDS011;64907;51.574;6.502;2023-08-17T01:12:22;8.50;;;7.53;;
76157;SDS011;64907;51.574;6.502;2023-08-17T01:14:58;9.30;;;7.40;;
76157;SDS011;64907;51.574;6.502;2023-08-17T01:17:26;7.50;;;6.93;;
76157;SDS011;64907;51.574;6.502;2023-08-17T01:19:54;8.02;;;7.15;;
76157;SDS011;64907;51.574;6.502;2023-08-17T01:22:21;7.45;;;6.95;;
76157;SDS011;64907;51.574;6.502;2023-08-17T01:24:46;7.82;;;7.13;;
76157;SDS011;64907;51.574;6.502;2023-08-17T01:27:11;9.53;;;7.47;;
76157;SDS011;64907;51.574;6.502;2023-08-17T01:29:37;7.87;;;7.00;;
76157;SDS011;64907;51.574;6.502;2023-08-17T01:34:27;7.88;;;6.65;;
76157;SDS011;64907;51.574;6.502;2023-08-17T01:36:53;9.07;;;8.18;;
76157;SDS011;64907;51.574;6.502;2023-08-17T01:39:21;12.75;;;7.65;;
76157;SDS011;64907;51.574;6.502;2023-08-17T01:41:48;8.80;;;8.02;;
76157;SDS011;64907;51.574;6.502;2023-08-17T01:44:14;11.55;;;6.72;;
76157;SDS011;64907;51.574;6.502;2023-08-17T01:46:39;8.27;;;6.53;;
76157;SDS011;64907;51.574;6.502;2023-08-17T01:49:04;8.82;;;6.75;;
76157;SDS011;64907;51.574;6.502;2023-08-17T01:51:29;9.35;;;5.78;;
76157;SDS011;64907;51.574;6.502;2023-08-17T01:53:55;6.22;;;5.82;;
76157;SDS011;64907;51.574;6.502;2023-08-17T01:56:20;6.60;;;6.10;;
76157;SDS011;64907;51.574;6.502;2023-08-17T01:58:45;9.65;;;6.40;;
76157;SDS011;64907;51.574;6.502;2023-08-17T02:01:10;12.50;;;6.63;;
76157;SDS011;64907;51.574;6.502;2023-08-17T02:03:35;9.30;;;7.03;;
76157;SDS011;64907;51.574;6.502;2023-08-17T02:06:01;8.63;;;6.10;;
76157;SDS011;64907;51.574;6.502;2023-08-17T02:08:26;6.93;;;6.28;;
76157;SDS011;64907;51.574;6.502;2023-08-17T02:10:51;10.20;;;6.50;;
76157;SDS011;64907;51.574;6.502;2023-08-17T02:13:17;11.18;;;6.90;;
76157;SDS011;64907;51.574;6.502;2023-08-17T02:15:42;9.88;;;6.97;;
76157;SDS011;64907;51.574;6.502;2023-08-17T02:18:08;11.10;;;7.20;;
76157;SDS011;64907;51.574;6.502;2023-08-17T02:20:33;6.80;;;6.20;;
76157;SDS011;64907;51.574;6.502;2023-08-17T02:22:58;7.70;;;7.03;;
76157;SDS011;64907;51.574;6.502;2023-08-17T02:25:23;7.93;;;6.87;;
76157;SDS011;64907;51.574;6.502;2023-08-17T02:27:48;9.07;;;6.97;;
76157;SDS011;64907;51.574;6.502;2023-08-17T02:30:14;7.20;;;6.57;;
76157;SDS011;64907;51.574;6.502;2023-08-17T02:32:39;6.93;;;6.23;;
76157;SDS011;64907;51.574;6.502;2023-08-17T02:35:04;7.18;;;6.63;;
76157;SDS011;64907;51.574;6.502;2023-08-17T02:37:29;7.70;;;6.28;;
76157;SDS011;64907;51.574;6.502;2023-08-17T02:39:55;7.85;;;6.75;;
76157;SDS011;64907;51.574;6.502;2023-08-17T02:42:20;7.93;;;7.20;;
76157;SDS011;64907;51.574;6.502;2023-08-17T02:44:45;7.60;;;6.97;;
76157;SDS011;64907;51.574;6.502;2023-08-17T02:47:10;8.40;;;6.97;;
76157;SDS011;64907;51.574;6.502;2023-08-17T02:49:36;7.80;;;7.20;;
76157;SDS011;64907;51.574;6.502;2023-08-17T02:52:01;10.48;;;6.88;;
76157;SDS011;64907;51.574;6.502;2023-08-17T02:54:26;12.65;;;6.90;;
76157;SDS011;64907;51.574;6.502;2023-08-17T02:56:51;10.33;;;7.47;;
76157;SDS011;64907;51.574;6.502;2023-08-17T02:59:17;8.38;;;7.22;;
76157;SDS011;64907;51.574;6.502;2023-08-17T03:01:43;13.13;;;7.80;;
76157;SDS011;64907;51.574;6.502;2023-08-17T03:04:08;8.48;;;7.32;;
76157;SDS011;64907;51.574;6.502;2023-08-17T03:06:33;7.87;;;7.07;;
76157;SDS011;64907;51.574;6.502;2023-08-17T03:08:58;8.38;;;7.50;;
76157;SDS011;64907;51.574;6.502;2023-08-17T03:11:24;8.70;;;7.73;;
76157;SDS011;64907;51.574;6.502;2023-08-17T03:13:49;10.27;;;7.10;;
76157;SDS011;64907;51.574;6.502;2023-08-17T03:16:14;8.18;;;6.93;;
76157;SDS011;64907;51.574;6.502;2023-08-17T03:18:40;8.18;;;7.35;;
76157;SDS011;64907;51.574;6.502;2023-08-17T03:21:06;14.80;;;7.88;;
76157;SDS011;64907;51.574;6.502;2023-08-17T03:23:32;8.57;;;7.77;;
76157;SDS011;64907;51.574;6.502;2023-08-17T03:25:57;9.35;;;6.95;;
76157;SDS011;64907;51.574;6.502;2023-08-17T03:28:22;8.10;;;7.27;;
76157;SDS011;64907;51.574;6.502;2023-08-17T03:30:47;8.60;;;7.22;;
76157;SDS011;64907;51.574;6.502;2023-08-17T03:33:12;10.32;;;7.88;;
76157;SDS011;64907;51.574;6.502;2023-08-17T03:35:38;11.03;;;7.37;;
76157;SDS011;64907;51.574;6.502;2023-08-17T03:38:03;13.45;;;8.20;;
76157;SDS011;64907;51.574;6.502;2023-08-17T03:40:28;12.83;;;8.27;;
76157;SDS011;64907;51.574;6.502;2023-08-17T03:42:53;10.13;;;7.57;;
76157;SDS011;64907;51.574;6.502;2023-08-17T03:45:19;17.10;;;7.60;;
76157;SDS011;64907;51.574;6.502;2023-08-17T03:47:44;8.65;;;7.05;;
76157;SDS011;64907;51.574;6.502;2023-08-17T03:50:09;11.10;;;7.90;;
76157;SDS011;64907;51.574;6.502;2023-08-17T03:52:35;9.98;;;8.63;;
76157;SDS011;64907;51.574;6.502;2023-08-17T03:55:00;10.55;;;8.25;;
76157;SDS011;64907;51.574;6.502;2023-08-17T03:57:25;8.52;;;7.65;;
76157;SDS011;64907;51.574;6.502;2023-08-17T03:59:51;9.47;;;8.33;;
76157;SDS011;64907;51.574;6.502;2023-08-17T04:02:16;14.52;;;9.70;;
76157;SDS011;64907;51.574;6.502;2023-08-17T04:04:41;11.63;;;10.07;;
76157;SDS011;64907;51.574;6.502;2023-08-17T04:07:06;13.70;;;10.30;;
76157;SDS011;64907;51.574;6.502;2023-08-17T04:09:32;12.02;;;9.45;;
76157;SDS011;64907;51.574;6.502;2023-08-17T04:11:58;15.02;;;9.07;;
76157;SDS011;64907;51.574;6.502;2023-08-17T04:14:23;9.85;;;8.82;;
76157;SDS011;64907;51.574;6.502;2023-08-17T04:16:49;15.10;;;9.90;;
76157;SDS011;64907;51.574;6.502;2023-08-17T04:19:14;13.77;;;9.80;;
76157;SDS011;64907;51.574;6.502;2023-08-17T04:21:40;12.30;;;8.85;;
76157;SDS011;64907;51.574;6.502;2023-08-17T04:24:05;15.40;;;9.75;;
76157;SDS011;64907;51.574;6.502;2023-08-17T04:26:31;10.45;;;8.77;;
76157;SDS011;64907;51.574;6.502;2023-08-17T04:28:56;15.52;;;9.25;;
76157;SDS011;64907;51.574;6.502;2023-08-17T04:31:21;13.53;;;9.83;;
76157;SDS011;64907;51.574;6.502;2023-08-17T04:33:46;14.93;;;9.40;;
76157;SDS011;64907;51.574;6.502;2023-08-17T04:36:11;11.67;;;9.10;;
76157;SDS011;64907;51.574;6.502;2023-08-17T04:38:37;12.65;;;9.30;;
76157;SDS011;64907;51.574;6.502;2023-08-17T04:41:02;11.27;;;10.05;;
76157;SDS011;64907;51.574;6.502;2023-08-17T04:43:27;11.68;;;9.63;;
76157;SDS011;64907;51.574;6.502;2023-08-17T04:45:52;15.57;;;11.10;;
76157;SDS011;64907;51.574;6.502;2023-08-17T04:48:19;12.23;;;9.63;;
76157;SDS011;64907;51.574;6.502;2023-08-17T04:50:44;10.48;;;9.23;;
76157;SDS011;64907;51.574;6.502;2023-08-17T04:53:09;13.63;;;9.13;;
76157;SDS011;64907;51.574;6.502;2023-08-17T04:55:35;16.53;;;10.23;;
76157;SDS011;64907;51.574;6.502;2023-08-17T04:58:00;13.48;;;9.73;;
76157;SDS011;64907;51.574;6.502;2023-08-17T05:00:25;13.60;;;8.83;;
76157;SDS011;64907;51.574;6.502;2023-08-17T05:02:55;13.23;;;9.52;;
76157;SDS011;64907;51.574;6.502;2023-08-17T05:05:20;15.98;;;8.88;;
76157;SDS011;64907;51.574;6.502;2023-08-17T05:10:16;11.18;;;10.07;;
76157;SDS011;64907;51.574;6.502;2023-08-17T05:12:41;17.00;;;10.43;;
76157;SDS011;64907;51.574;6.502;2023-08-17T05:15:06;16.83;;;10.43;;
76157;SDS011;64907;51.574;6.502;2023-08-17T05:17:32;10.68;;;8.38;;
76157;SDS011;64907;51.574;6.502;2023-08-17T05:19:57;10.93;;;9.47;;
76157;SDS011;64907;51.574;6.502;2023-08-17T05:22:23;11.37;;;9.40;;
76157;SDS011;64907;51.574;6.502;2023-08-17T05:24:49;17.95;;;9.23;;
76157;SDS011;64907;51.574;6.502;2023-08-17T05:29:42;9.45;;;8.38;;
76157;SDS011;64907;51.574;6.502;2023-08-17T05:32:08;10.10;;;8.80;;
76157;SDS011;64907;51.574;6.502;2023-08-17T05:34:33;11.98;;;8.98;;
76157;SDS011;64907;51.574;6.502;2023-08-17T05:36:59;10.50;;;8.57;;
76157;SDS011;64907;51.574;6.502;2023-08-17T05:39:24;10.48;;;8.23;;
76157;SDS011;64907;51.574;6.502;2023-08-17T05:41:49;12.37;;;7.90;;
76157;SDS011;64907;51.574;6.502;2023-08-17T05:44:14;10.20;;;7.97;;
76157;SDS011;64907;51.574;6.502;2023-08-17T05:46:40;9.20;;;8.32;;
76157;SDS011;64907;51.574;6.502;2023-08-17T05:49:05;8.23;;;7.13;;
76157;SDS011;64907;51.574;6.502;2023-08-17T05:51:30;8.02;;;7.18;;
76157;SDS011;64907;51.574;6.502;2023-08-17T05:53:56;9.20;;;7.95;;
76157;SDS011;64907;51.574;6.502;2023-08-17T05:56:22;9.60;;;7.40;;
76157;SDS011;64907;51.574;6.502;2023-08-17T05:58:49;11.75;;;7.20;;
76157;SDS011;64907;51.574;6.502;2023-08-17T06:01:14;7.88;;;7.18;;
76157;SDS011;64907;51.574;6.502;2023-08-17T06:03:39;12.03;;;6.70;;
76157;SDS011;64907;51.574;6.502;2023-08-17T06:06:04;8.73;;;7.30;;
76157;SDS011;64907;51.574;6.502;2023-08-17T06:08:33;7.85;;;7.10;;
76157;SDS011;64907;51.574;6.502;2023-08-17T06:10:59;9.95;;;7.57;;
76157;SDS011;64907;51.574;6.502;2023-08-17T06:13:24;8.37;;;6.53;;
76157;SDS011;64907;51.574;6.502;2023-08-17T06:15:49;9.88;;;6.03;;
76157;SDS011;64907;51.574;6.502;2023-08-17T06:18:14;12.85;;;7.18;;
76157;SDS011;64907;51.574;6.502;2023-08-17T06:20:40;9.80;;;6.00;;
76157;SDS011;64907;51.574;6.502;2023-08-17T06:23:05;8.38;;;5.88;;
76157;SDS011;64907;51.574;6.502;2023-08-17T06:25:30;8.67;;;6.03;;
76157;SDS011;64907;51.574;6.502;2023-08-17T06:27:56;8.40;;;7.03;;
76157;SDS011;64907;51.574;6.502;2023-08-17T06:30:21;6.47;;;5.70;;
76157;SDS011;64907;51.574;6.502;2023-08-17T06:32:47;9.48;;;6.68;;
76157;SDS011;64907;51.574;6.502;2023-08-17T06:35:12;9.40;;;5.82;;
76157;SDS011;64907;51.574;6.502;2023-08-17T06:37:37;7.00;;;6.30;;
76157;SDS011;64907;51.574;6.502;2023-08-17T06:42:32;6.53;;;5.93;;
76157;SDS011;64907;51.574;6.502;2023-08-17T06:44:57;8.85;;;5.55;;
76157;SDS011;64907;51.574;6.502;2023-08-17T06:47:22;7.35;;;6.10;;
76157;SDS011;64907;51.574;6.502;2023-08-17T06:49:47;6.10;;;5.50;;
76157;SDS011;64907;51.574;6.502;2023-08-17T06:52:14;9.20;;;6.03;;
76157;SDS011;64907;51.574;6.502;2023-08-17T06:54:39;9.00;;;6.18;;
76157;SDS011;64907;51.574;6.502;2023-08-17T06:57:06;6.72;;;6.07;;
76157;SDS011;64907;51.574;6.502;2023-08-17T06:59:32;8.88;;;5.95;;
76157;SDS011;64907;51.574;6.502;2023-08-17T07:02:00;6.50;;;5.93;;
76157;SDS011;64907;51.574;6.502;2023-08-17T07:04:25;10.27;;;5.88;;
76157;SDS011;64907;51.574;6.502;2023-08-17T07:06:51;9.50;;;6.15;;
76157;SDS011;64907;51.574;6.502;2023-08-17T07:09:16;10.63;;;6.10;;
76157;SDS011;64907;51.574;6.502;2023-08-17T07:11:42;6.03;;;5.53;;
76157;SDS011;64907;51.574;6.502;2023-08-17T07:14:07;5.75;;;5.13;;
76157;SDS011;64907;51.574;6.502;2023-08-17T07:16:32;7.67;;;6.70;;
76157;SDS011;64907;51.574;6.502;2023-08-17T07:18:57;6.53;;;5.38;;
76157;SDS011;64907;51.574;6.502;2023-08-17T07:21:22;8.85;;;5.45;;
76157;SDS011;64907;51.574;6.502;2023-08-17T07:23:48;6.00;;;5.50;;
76157;SDS011;64907;51.574;6.502;2023-08-17T07:26:14;6.82;;;6.10;;
76157;SDS011;64907;51.574;6.502;2023-08-17T07:28:39;9.00;;;5.75;;
76157;SDS011;64907;51.574;6.502;2023-08-17T07:31:04;10.53;;;6.87;;
76157;SDS011;64907;51.574;6.502;2023-08-17T07:33:31;8.90;;;6.03;;
76157;SDS011;64907;51.574;6.502;2023-08-17T07:35:56;9.65;;;6.07;;
76157;SDS011;64907;51.574;6.502;2023-08-17T07:38:23;10.38;;;7.28;;
76157;SDS011;64907;51.574;6.502;2023-08-17T07:40:48;10.90;;;6.32;;
76157;SDS011;64907;51.574;6.502;2023-08-17T07:43:13;11.90;;;6.70;;
76157;SDS011;64907;51.574;6.502;2023-08-17T07:45:39;7.80;;;6.30;;
76157;SDS011;64907;51.574;6.502;2023-08-17T07:48:04;6.88;;;6.00;;
76157;SDS011;64907;51.574;6.502;2023-08-17T07:50:29;8.45;;;7.38;;
76157;SDS011;64907;51.574;6.502;2023-08-17T07:52:55;10.27;;;6.43;;
76157;SDS011;64907;51.574;6.502;2023-08-17T07:55:20;8.77;;;6.32;;
76157;SDS011;64907;51.574;6.502;2023-08-17T07:57:45;7.40;;;5.95;;
76157;SDS011;64907;51.574;6.502;2023-08-17T08:00:10;10.73;;;7.10;;
76157;SDS011;64907;51.574;6.502;2023-08-17T08:02:36;12.65;;;7.72;;
76157;SDS011;64907;51.574;6.502;2023-08-17T08:05:01;10.90;;;8.07;;
76157;SDS011;64907;51.574;6.502;2023-08-17T08:07:26;9.57;;;6.33;;
76157;SDS011;64907;51.574;6.502;2023-08-17T08:09:51;6.77;;;6.17;;
76157;SDS011;64907;51.574;6.502;2023-08-17T08:12:16;8.93;;;7.17;;
76157;SDS011;64907;51.574;6.502;2023-08-17T08:14:42;10.85;;;6.88;;
76157;SDS011;64907;51.574;6.502;2023-08-17T08:17:07;7.60;;;6.97;;
76157;SDS011;64907;51.574;6.502;2023-08-17T08:19:32;12.33;;;7.20;;
76157;SDS011;64907;51.574;6.502;2023-08-17T08:21:58;12.35;;;8.27;;
76157;SDS011;64907;51.574;6.502;2023-08-17T08:24:23;8.98;;;6.60;;
76157;SDS011;64907;51.574;6.502;2023-08-17T08:26:48;13.27;;;9.20;;
76157;SDS011;64907;51.574;6.502;2023-08-17T08:29:13;14.07;;;9.13;;
76157;SDS011;64907;51.574;6.502;2023-08-17T08:31:40;14.70;;;8.73;;
76157;SDS011;64907;51.574;6.502;2023-08-17T08:34:05;10.07;;;9.00;;
76157;SDS011;64907;51.574;6.502;2023-08-17T08:36:30;16.48;;;13.27;;
76157;SDS011;64907;51.574;6.502;2023-08-17T08:38:55;19.13;;;13.77;;
76157;SDS011;64907;51.574;6.502;2023-08-17T08:41:21;16.37;;;12.20;;
76157;SDS011;64907;51.574;6.502;2023-08-17T08:43:46;20.90;;;12.18;;
76157;SDS011;64907;51.574;6.502;2023-08-17T08:46:11;13.18;;;11.45;;
76157;SDS011;64907;51.574;6.502;2023-08-17T08:48:38;18.42;;;15.60;;
76157;SDS011;64907;51.574;6.502;2023-08-17T08:51:07;15.95;;;12.82;;
76157;SDS011;64907;51.574;6.502;2023-08-17T08:53:41;14.20;;;10.95;;
76157;SDS011;64907;51.574;6.502;2023-08-17T08:56:10;12.23;;;8.80;;
76157;SDS011;64907;51.574;6.502;2023-08-17T08:58:36;11.88;;;9.00;;
76157;SDS011;64907;51.574;6.502;2023-08-17T09:01:01;12.73;;;9.68;;
76157;SDS011;64907;51.574;6.502;2023-08-17T09:03:27;14.43;;;9.63;;
76157;SDS011;64907;51.574;6.502;2023-08-17T09:05:52;15.75;;;8.52;;
76157;SDS011;64907;51.574;6.502;2023-08-17T09:08:21;11.45;;;8.55;;
76157;SDS011;64907;51.574;6.502;2023-08-17T09:10:47;22.30;;;10.40;;
76157;SDS011;64907;51.574;6.502;2023-08-17T09:13:12;12.13;;;8.52;;
76157;SDS011;64907;51.574;6.502;2023-08-17T09:15:38;12.00;;;9.15;;
76157;SDS011;64907;51.574;6.502;2023-08-17T09:18:04;8.88;;;7.95;;
76157;SDS011;64907;51.574;6.502;2023-08-17T09:23:09;11.95;;;8.27;;
76157;SDS011;64907;51.574;6.502;2023-08-17T09:25:35;10.52;;;8.10;;
76157;SDS011;64907;51.574;6.502;2023-08-17T09:28:02;17.07;;;8.87;;
76157;SDS011;64907;51.574;6.502;2023-08-17T09:30:32;9.85;;;8.75;;
76157;SDS011;64907;51.574;6.502;2023-08-17T09:33:01;18.07;;;8.73;;
76157;SDS011;64907;51.574;6.502;2023-08-17T09:35:26;10.70;;;8.70;;
76157;SDS011;64907;51.574;6.502;2023-08-17T09:37:51;16.53;;;9.17;;
76157;SDS011;64907;51.574;6.502;2023-08-17T09:40:17;9.55;;;8.55;;
76157;SDS011;64907;51.574;6.502;2023-08-17T09:42:42;15.50;;;9.20;;
76157;SDS011;64907;51.574;6.502;2023-08-17T09:45:09;11.00;;;8.93;;
76157;SDS011;64907;51.574;6.502;2023-08-17T09:47:34;15.77;;;9.73;;
76157;SDS011;64907;51.574;6.502;2023-08-17T09:50:00;16.85;;;9.45;;
76157;SDS011;64907;51.574;6.502;2023-08-17T09:52:25;13.05;;;8.13;;
76157;SDS011;64907;51.574;6.502;2023-08-17T09:54:51;13.45;;;9.43;;
76157;SDS011;64907;51.574;6.502;2023-08-17T09:57:17;12.55;;;9.35;;
76157;SDS011;64907;51.574;6.502;2023-08-17T09:59:42;14.77;;;8.50;;
76157;SDS011;64907;51.574;6.502;2023-08-17T10:02:17;13.97;;;10.13;;
76157;SDS011;64907;51.574;6.502;2023-08-17T10:04:48;17.30;;;9.48;;
76157;SDS011;64907;51.574;6.502;2023-08-17T10:07:15;13.98;;;10.15;;
76157;SDS011;64907;51.574;6.502;2023-08-17T10:09:42;18.98;;;10.10;;
76157;SDS011;64907;51.574;6.502;2023-08-17T10:12:12;12.25;;;10.65;;
76157;SDS011;64907;51.574;6.502;2023-08-17T10:14:42;13.90;;;9.05;;
76157;SDS011;64907;51.574;6.502;2023-08-17T10:17:11;10.45;;;8.80;;
76157;SDS011;64907;51.574;6.502;2023-08-17T10:22:12;14.60;;;9.10;;
76157;SDS011;64907;51.574;6.502;2023-08-17T10:24:39;12.93;;;9.15;;
76157;SDS011;64907;51.574;6.502;2023-08-17T10:27:05;12.10;;;9.05;;
76157;SDS011;64907;51.574;6.502;2023-08-17T10:29:31;10.52;;;8.85;;
76157;SDS011;64907;51.574;6.502;2023-08-17T10:31:56;11.35;;;8.43;;
76157;SDS011;64907;51.574;6.502;2023-08-17T10:34:22;11.35;;;9.73;;
76157;SDS011;64907;51.574;6.502;2023-08-17T10:36:47;11.27;;;8.80;;
76157;SDS011;64907;51.574;6.502;2023-08-17T10:39:20;12.95;;;9.40;;
76157;SDS011;64907;51.574;6.502;2023-08-17T10:41:46;11.60;;;9.57;;
76157;SDS011;64907;51.574;6.502;2023-08-17T10:44:13;12.02;;;10.48;;
76157;SDS011;64907;51.574;6.502;2023-08-17T10:46:38;10.45;;;9.45;;
76157;SDS011;64907;51.574;6.502;2023-08-17T10:49:23;13.45;;;8.95;;
76157;SDS011;64907;51.574;6.502;2023-08-17T10:52:06;10.25;;;9.13;;
76157;SDS011;64907;51.574;6.502;2023-08-17T10:54:36;11.07;;;9.73;;
76157;SDS011;64907;51.574;6.502;2023-08-17T10:57:23;12.15;;;9.95;;
76157;SDS011;64907;51.574;6.502;2023-08-17T10:59:46;9.95;;;8.95;;
76157;SDS011;64907;51.574;6.502;2023-08-17T11:02:31;10.32;;;9.32;;
76157;SDS011;64907;51.574;6.502;2023-08-17T11:04:57;9.30;;;8.50;;
76157;SDS011;64907;51.574;6.502;2023-08-17T11:07:22;10.52;;;8.35;;
76157;SDS011;64907;51.574;6.502;2023-08-17T11:09:48;11.75;;;8.48;;
76157;SDS011;64907;51.574;6.502;2023-08-17T11:12:24;9.68;;;8.48;;
76157;SDS011;64907;51.574;6.502;2023-08-17T11:14:50;9.43;;;8.48;;
76157;SDS011;64907;51.574;6.502;2023-08-17T11:17:15;10.27;;;9.18;;
76157;SDS011;64907;51.574;6.502;2023-08-17T11:19:40;10.40;;;9.30;;
76157;SDS011;64907;51.574;6.502;2023-08-17T11:22:05;8.90;;;8.02;;
76157;SDS011;64907;51.574;6.502;2023-08-17T11:24:31;9.67;;;8.70;;
76157;SDS011;64907;51.574;6.502;2023-08-17T11:26:56;9.82;;;8.07;;
76157;SDS011;64907;51.574;6.502;2023-08-17T11:29:21;8.90;;;8.13;;
76157;SDS011;64907;51.574;6.502;2023-08-17T11:31:49;9.15;;;7.97;;
76157;SDS011;64907;51.574;6.502;2023-08-17T11:34:15;9.38;;;8.15;;
76157;SDS011;64907;51.574;6.502;2023-08-17T11:36:40;8.82;;;8.02;;
76157;SDS011;64907;51.574;6.502;2023-08-17T11:39:05;9.27;;;8.37;;
76157;SDS011;64907;51.574;6.502;2023-08-17T11:41:32;9.82;;;8.77;;
76157;SDS011;64907;51.574;6.502;2023-08-17T11:43:57;13.07;;;8.57;;
76157;SDS011;64907;51.574;6.502;2023-08-17T11:46:23;9.00;;;8.10;;
76157;SDS011;64907;51.574;6.502;2023-08-17T11:48:50;10.25;;;9.32;;
76157;SDS011;64907;51.574;6.502;2023-08-17T11:51:27;9.73;;;8.32;;
76157;SDS011;64907;51.574;6.502;2023-08-17T11:53:53;8.98;;;8.18;;
76157;SDS011;64907;51.574;6.502;2023-08-17T11:56:19;12.73;;;11.10;;
76157;SDS011;64907;51.574;6.502;2023-08-17T11:58:45;12.05;;;10.93;;
76157;SDS011;64907;51.574;6.502;2023-08-17T12:01:11;11.55;;;10.40;;
76157;SDS011;64907;51.574;6.502;2023-08-17T12:03:39;9.93;;;9.02;;
76157;SDS011;64907;51.574;6.502;2023-08-17T12:06:05;8.85;;;7.93;;
76157;SDS011;64907;51.574;6.502;2023-08-17T12:08:30;10.40;;;8.75;;
76157;SDS011;64907;51.574;6.502;2023-08-17T12:10:56;10.63;;;9.40;;
76157;SDS011;64907;51.574;6.502;2023-08-17T12:13:28;11.85;;;10.63;;
76157;SDS011;64907;51.574;6.502;2023-08-17T12:15:54;11.05;;;8.48;;
76157;SDS011;64907;51.574;6.502;2023-08-17T12:18:20;9.82;;;8.90;;
76157;SDS011;64907;51.574;6.502;2023-08-17T12:20:51;9.75;;;8.75;;
76157;SDS011;64907;51.574;6.502;2023-08-17T12:23:16;11.45;;;9.32;;
76157;SDS011;64907;51.574;6.502;2023-08-17T12:25:42;11.77;;;10.30;;
76157;SDS011;64907;51.574;6.502;2023-08-17T12:28:07;11.23;;;10.07;;
76157;SDS011;64907;51.574;6.502;2023-08-17T12:30:32;9.77;;;8.83;;
76157;SDS011;64907;51.574;6.502;2023-08-17T12:32:57;9.20;;;8.50;;
76157;SDS011;64907;51.574;6.502;2023-08-17T12:35:23;9.20;;;8.20;;
76157;SDS011;64907;51.574;6.502;2023-08-17T12:37:49;12.80;;;8.30;;
76157;SDS011;64907;51.574;6.502;2023-08-17T12:40:14;10.18;;;9.18;;
76157;SDS011;64907;51.574;6.502;2023-08-17T12:45:08;9.13;;;8.30;;
76157;SDS011;64907;51.574;6.502;2023-08-17T12:47:33;9.15;;;8.38;;
76157;SDS011;64907;51.574;6.502;2023-08-17T12:50:00;9.20;;;8.20;;
76157;SDS011;64907;51.574;6.502;2023-08-17T12:52:27;9.85;;;8.85;;
76157;SDS011;64907;51.574;6.502;2023-08-17T12:54:53;11.68;;;10.05;;
76157;SDS011;64907;51.574;6.502;2023-08-17T12:57:18;10.32;;;9.43;;
76157;SDS011;64907;51.574;6.502;2023-08-17T12:59:43;11.32;;;9.35;;
76157;SDS011;64907;51.574;6.502;2023-08-17T13:02:09;11.10;;;10.10;;
76157;SDS011;64907;51.574;6.502;2023-08-17T13:04:34;10.07;;;9.13;;
76157;SDS011;64907;51.574;6.502;2023-08-17T13:06:59;10.67;;;9.87;;
76157;SDS011;64907;51.574;6.502;2023-08-17T13:09:24;10.13;;;9.13;;
76157;SDS011;64907;51.574;6.502;2023-08-17T13:11:51;10.57;;;9.57;;
76157;SDS011;64907;51.574;6.502;2023-08-17T13:14:16;14.35;;;9.93;;
76157;SDS011;64907;51.574;6.502;2023-08-17T13:16:41;12.10;;;10.80;;
76157;SDS011;64907;51.574;6.502;2023-08-17T13:19:06;14.57;;;13.27;;
76157;SDS011;64907;51.574;6.502;2023-08-17T13:21:31;13.07;;;11.77;;
76157;SDS011;64907;51.574;6.502;2023-08-17T13:23:57;12.90;;;11.60;;
76157;SDS011;64907;51.574;6.502;2023-08-17T13:26:22;12.50;;;11.20;;
76157;SDS011;64907;51.574;6.502;2023-08-17T13:28:47;11.13;;;9.95;;
76157;SDS011;64907;51.574;6.502;2023-08-17T13:31:12;11.63;;;10.60;;
76157;SDS011;64907;51.574;6.502;2023-08-17T13:33:38;12.57;;;10.50;;
76157;SDS011;64907;51.574;6.502;2023-08-17T13:36:03;12.40;;;11.20;;
76157;SDS011;64907;51.574;6.502;2023-08-17T13:38:28;13.55;;;11.63;;
76157;SDS011;64907;51.574;6.502;2023-08-17T13:40:53;12.63;;;11.43;;
76157;SDS011;64907;51.574;6.502;2023-08-17T13:43:18;13.30;;;11.97;;
76157;SDS011;64907;51.574;6.502;2023-08-17T13:45:44;14.03;;;12.53;;
76157;SDS011;64907;51.574;6.502;2023-08-17T13:48:09;13.67;;;11.40;;
76157;SDS011;64907;51.574;6.502;2023-08-17T13:50:36;16.10;;;12.57;;
76157;SDS011;64907;51.574;6.502;2023-08-17T13:53:02;14.18;;;12.65;;
76157;SDS011;64907;51.574;6.502;2023-08-17T13:55:27;15.00;;;12.37;;
76157;SDS011;64907;51.574;6.502;2023-08-17T13:57:53;13.85;;;12.02;;
76157;SDS011;64907;51.574;6.502;2023-08-17T14:00:20;14.73;;;12.30;;
76157;SDS011;64907;51.574;6.502;2023-08-17T14:02:45;14.20;;;11.88;;
76157;SDS011;64907;51.574;6.502;2023-08-17T14:05:10;13.77;;;11.80;;
76157;SDS011;64907;51.574;6.502;2023-08-17T14:07:37;12.53;;;11.27;;
76157;SDS011;64907;51.574;6.502;2023-08-17T14:10:03;12.00;;;10.65;;
76157;SDS011;64907;51.574;6.502;2023-08-17T14:12:28;12.77;;;11.48;;
76157;SDS011;64907;51.574;6.502;2023-08-17T14:14:53;13.43;;;11.63;;
76157;SDS011;64907;51.574;6.502;2023-08-17T14:17:18;12.90;;;11.57;;
76157;SDS011;64907;51.574;6.502;2023-08-17T14:19:44;14.63;;;12.65;;
76157;SDS011;64907;51.574;6.502;2023-08-17T14:22:09;13.70;;;12.43;;
76157;SDS011;64907;51.574;6.502;2023-08-17T14:24:34;12.97;;;11.67;;
76157;SDS011;64907;51.574;6.502;2023-08-17T14:26:59;11.93;;;10.73;;
76157;SDS011;64907;51.574;6.502;2023-08-17T14:29:24;14.37;;;12.57;;
76157;SDS011;64907;51.574;6.502;2023-08-17T14:31:50;12.70;;;11.50;;
76157;SDS011;64907;51.574;6.502;2023-08-17T14:34:15;13.70;;;11.98;;
76157;SDS011;64907;51.574;6.502;2023-08-17T14:36:40;14.30;;;11.27;;
76157;SDS011;64907;51.574;6.502;2023-08-17T14:39:05;12.10;;;10.85;;
76157;SDS011;64907;51.574;6.502;2023-08-17T14:41:31;12.80;;;11.40;;
76157;SDS011;64907;51.574;6.502;2023-08-17T14:43:59;13.30;;;12.00;;
76157;SDS011;64907;51.574;6.502;2023-08-17T14:46:25;13.25;;;11.85;;
76157;SDS011;64907;51.574;6.502;2023-08-17T14:48:50;15.38;;;13.23;;